Kapikargin, Turkey

6:38 PM +03 on August 18, 2017 (GMT +0300)
Dalaman | | Change Station

Elev 7 ft 36.70 °N, 28.78 °E | Updated 18 minutes ago

Scattered Clouds
Scattered Clouds
84 °F
Feels Like 91 °F
N
10
Wind Variable Wind from SSW

Today
High -- | Low -- °F
--% Chance of Precip.
Yesterday
High -- | Low -- °F
Precip. -- in
Pressure 29.77 in
Visibility 6.2 miles
Clouds Few 3000 ft
Scattered Clouds 10000 ft
Heat Index 91 °F
Dew Point 73 °F
Humidity 70%
Rainfall 0.00 in
Snow Depth Not available.
6:24 AM 7:52 PM
Waning Crescent, 13% visible
METAR LTBS 181520Z 20009KT 9999 FEW030 SCT100 29/23 Q1008 NOSIG RMK RWY19 19009KT
Pressure 29.77 in
Visibility 6.2 miles
Clouds Few 3000 ft
Scattered Clouds 10000 ft
Heat Index 91 °F
Dew Point 73 °F
Humidity 70%
Rainfall 0.00 in
Snow Depth Not available.
6:24 AM 7:52 PM
Waning Crescent, 13% visible
METAR LTBS 181520Z 20009KT 9999 FEW030 SCT100 29/23 Q1008 NOSIG RMK RWY19 19009KT

Get Severe Weather Alerts

Thanks for signing up!

Be on the lookout for a verification email in your inbox.

You'll start receiving the daily forecast at 6 AM.

×

10-Day Weather Forecast

×

Almanac

Astronomy

Aug. 18, 2017 Rise Set
Actual Time
Civil Twilight
Nautical Twilight
Astronomical Twilight
Moon
Length of Visible Light
Length of Day
Tomorrow will be .
, % of the Moon is Illuminated

Today's Extremes

Country Highs Country Lows

Community

WunderPhotos

Category 6

Welcome to Category 6. This is the collective home for Weather Underground's featured writeups by Dr. Jeff Masters (right), Bob Henson (left), Chris Burt, and other regular contributors.

Nearby

Air Quality

  Air Quality AQ Index Pollutant
Not available.

Snow Depth

Station Depth Elevation

Earthquake Activity

City Distance Mag. Time & Date
Minimum magnitude displayed is 2.5.

Coastal Water Temperatures

Place Temperature

Stations

Nearby Weather Stations

Station Location Temp. Windchill Dew Point Humidity Wind Precip. Elev Updated Type